• Join FlightAware (Why Join?)
  • Login
  • US Flag 
01:33AM EDT


 

Airport Tracker/Info


-or-


 

Live Flight TrackerFlight Track Log ✈ SKW4841 ✈ 21-Jul-2013 ✈ KMSP - KGFK

Flight Track Log - Related Links

Times and Time Zones

All times are in EDT time to prevent confusion due to time zone crossing. See the SKW4841 flight status page for this flight to view local times or setup timezone preferences in your user account.

Time Position Orientation Groundspeed Altitude Reporting Facility
EDT Latitude Longitude Course Direction KTS MPH feet Rate Location/Type
04:03PM 44.8667 -93.1667 341° North 153 176 2,100  Level Minneapolis TRACON
04:04PM 44.8703 -93.1275 83° East 188 216 3,100 1,800 Climbing Minneapolis Center
04:05PM 44.8636 -93.0358 96° East 241 277 5,200 2,400 Climbing Minneapolis Center
04:06PM 45.2313 -93.4086 343° North  Level FlightAware Approximate
04:06PM 44.9281 -92.9950 24° Northeast 279 321 8,100  Level Minneapolis Center
04:07PM 45.3227 -93.4570 339° North  Level FlightAware Approximate
04:07PM 45.0061 -93.0072 354° North 285 328 10,700  Level Minneapolis Center
04:08PM 45.4138 -93.5069 341° North  Level FlightAware Approximate
04:08PM 45.0900 -93.0164 356° North 305 351 12,700  Level Minneapolis Center
04:09PM 45.1989 -93.0239 357° North 326 375 14,800 1,920 Climbing Minneapolis Center
04:10PM 45.2922 -93.0294 358° North 336 387 16,700 1,740 Climbing Minneapolis Center
04:11PM 45.3878 -93.0367 357° North 345 397 18,400 1,440 Climbing Minneapolis Center
04:12PM 45.4850 -93.0406 358° North 349 402 19,700 1,380 Climbing Minneapolis Center
04:13PM 45.5839 -93.0422 359° North 355 409 21,300 1,320 Climbing Minneapolis Center
04:14PM 45.6839 -93.0447 359° North 358 412 22,500 1,260 Climbing Minneapolis Center
04:15PM 45.8031 -93.0558 356° North 360 414 24,000 1,200 Climbing Minneapolis Center
04:16PM 45.8656 -93.1675 309° West 358 412 25,100 960 Climbing Minneapolis Center
04:17PM 45.9289 -93.2797 309° West 362 417 26,000 420 Climbing Minneapolis Center
04:18PM 45.9936 -93.3944 309° West 368 423 26,000  Level Minneapolis Center
04:19PM 46.0606 -93.5156 309° West 380 437 26,000  Level Minneapolis Center
04:20PM 46.1375 -93.6581 308° West 379 436 26,000  Level Minneapolis Center
04:21PM 46.2014 -93.7753 308° West 375 432 26,000  Level Minneapolis Center
04:22PM 46.2647 -93.8917 308° West 375 432 26,000  Level Minneapolis Center
04:23PM 46.3294 -94.0119 308° West 377 434 26,000  Level Minneapolis Center
04:24PM 46.3928 -94.1292 308° West 375 432 26,000  Level Minneapolis Center
04:25PM 46.4558 -94.2467 308° West 371 427 26,000  Level Minneapolis Center
04:26PM 46.5300 -94.3856 308° West 367 422 26,000  Level Minneapolis Center
04:27PM 46.5922 -94.5025 308° West 366 421 26,000  Level Minneapolis Center
04:28PM 46.6556 -94.6206 308° West 367 422 26,000  Level Minneapolis Center
04:29PM 46.7178 -94.7369 308° West 367 422 26,000  Level Minneapolis Center
04:31PM 46.7778 -94.8536 307° West 362 417 26,000  Level Minneapolis Center
04:32PM 46.8403 -94.9728 308° West 365 420 26,000  Level Minneapolis Center
04:33PM 46.9167 -95.1194 307° West 376 433 26,000  Level Minneapolis Center
04:34PM 46.9814 -95.2442 307° West 381 438 26,000  Level Minneapolis Center
04:35PM 47.0336 -95.3447 307° West 385 443 26,000  Level Minneapolis Center
04:36PM 47.1117 -95.4961 307° West 388 447 26,000  Level Minneapolis Center
04:37PM 47.1772 -95.6247 307° West 391 450 26,000 -1,260 Level Minneapolis Center
04:38PM 47.2564 -95.7836 306° West 400 460 23,400 -2,520 Descending Minneapolis Center
04:39PM 47.3239 -95.9117 308° West 407 468 20,800 -2,760 Descending Minneapolis Center
04:40PM 47.3967 -96.0506 308° West 388 447 17,700 -2,880 Descending Minneapolis Center
04:41PM 47.4603 -96.1786 306° West 373 429 14,900 -2,640 Descending Minneapolis Center
04:42PM 47.5183 -96.2950 306° West 367 422 12,300 -2,400 Descending Minneapolis Center
04:43PM 47.5903 -96.4053 314° West 357 411 10,000 -1,740 Descending Minneapolis Center
04:44PM 47.6542 -96.4872 319° Northwest 290 334 8,800 -1,620 Descending Minneapolis Center
04:45PM 47.7131 -96.5667 318° Northwest 276 318 6,700 -1,860 Descending Minneapolis Center
04:46PM 47.7642 -96.6386 317° Northwest 273 314 5,000 -1,320 Descending Minneapolis Center
04:47PM 47.8186 -96.7181 316° Northwest 274 315 4,000 -540 Descending Minneapolis Center
04:48PM 47.8789 -96.8022 317° Northwest 264 304 3,900 -540 Descending Minneapolis Center
04:49PM 47.9256 -96.8667 317° Northwest 250 288 3,000 -540 Descending Minneapolis Center
04:50PM 47.9650 -96.9361 310° West 238 274 2,800 -120 Descending Minneapolis Center
04:51PM 48.0000 -97.0081 306° West 227 261 2,800  Level Minneapolis Center
04:52PM 48.0303 -97.0806 302° West 218 251 2,800  Level Minneapolis Center